sensor_id;sensor_type;location;lat;lon;timestamp;P1;durP1;ratioP1;P2;durP2;ratioP2
66327;SDS011;53133;52.862;6.602;2023-07-28T00:02:06;19.25;;;9.30;;
66327;SDS011;53133;52.862;6.602;2023-07-28T00:04:33;20.65;;;8.98;;
66327;SDS011;53133;52.862;6.602;2023-07-28T00:06:59;18.25;;;9.15;;
66327;SDS011;53133;52.862;6.602;2023-07-28T00:09:25;17.15;;;8.65;;
66327;SDS011;53133;52.862;6.602;2023-07-28T00:11:51;18.17;;;8.40;;
66327;SDS011;53133;52.862;6.602;2023-07-28T00:14:16;17.45;;;8.35;;
66327;SDS011;53133;52.862;6.602;2023-07-28T00:16:42;18.77;;;8.40;;
66327;SDS011;53133;52.862;6.602;2023-07-28T00:19:08;16.75;;;7.80;;
66327;SDS011;53133;52.862;6.602;2023-07-28T00:21:34;17.73;;;8.40;;
66327;SDS011;53133;52.862;6.602;2023-07-28T00:23:59;16.65;;;8.48;;
66327;SDS011;53133;52.862;6.602;2023-07-28T00:26:25;15.55;;;8.10;;
66327;SDS011;53133;52.862;6.602;2023-07-28T00:28:50;20.00;;;9.10;;
66327;SDS011;53133;52.862;6.602;2023-07-28T00:31:16;19.63;;;8.77;;
66327;SDS011;53133;52.862;6.602;2023-07-28T00:33:42;15.52;;;8.10;;
66327;SDS011;53133;52.862;6.602;2023-07-28T00:36:08;20.48;;;9.48;;
66327;SDS011;53133;52.862;6.602;2023-07-28T00:38:34;17.85;;;8.85;;
66327;SDS011;53133;52.862;6.602;2023-07-28T00:40:59;18.80;;;9.02;;
66327;SDS011;53133;52.862;6.602;2023-07-28T00:43:25;20.05;;;9.05;;
66327;SDS011;53133;52.862;6.602;2023-07-28T00:45:50;18.65;;;8.98;;
66327;SDS011;53133;52.862;6.602;2023-07-28T00:48:17;21.92;;;9.55;;
66327;SDS011;53133;52.862;6.602;2023-07-28T00:50:46;16.58;;;9.52;;
66327;SDS011;53133;52.862;6.602;2023-07-28T00:53:13;18.42;;;10.30;;
66327;SDS011;53133;52.862;6.602;2023-07-28T00:55:39;18.13;;;9.57;;
66327;SDS011;53133;52.862;6.602;2023-07-28T00:58:06;14.85;;;8.68;;
66327;SDS011;53133;52.862;6.602;2023-07-28T01:00:33;18.50;;;9.13;;
66327;SDS011;53133;52.862;6.602;2023-07-28T01:02:59;19.65;;;9.13;;
66327;SDS011;53133;52.862;6.602;2023-07-28T01:05:29;16.13;;;8.75;;
66327;SDS011;53133;52.862;6.602;2023-07-28T01:08:04;22.10;;;9.95;;
66327;SDS011;53133;52.862;6.602;2023-07-28T01:10:34;18.63;;;10.40;;
66327;SDS011;53133;52.862;6.602;2023-07-28T01:13:00;24.52;;;10.95;;
66327;SDS011;53133;52.862;6.602;2023-07-28T01:15:25;20.88;;;10.63;;
66327;SDS011;53133;52.862;6.602;2023-07-28T01:17:51;25.27;;;10.88;;
66327;SDS011;53133;52.862;6.602;2023-07-28T01:20:17;25.92;;;11.77;;
66327;SDS011;53133;52.862;6.602;2023-07-28T01:22:58;26.08;;;11.40;;
66327;SDS011;53133;52.862;6.602;2023-07-28T01:28:15;23.60;;;11.68;;
66327;SDS011;53133;52.862;6.602;2023-07-28T01:30:42;25.73;;;11.10;;
66327;SDS011;53133;52.862;6.602;2023-07-28T01:33:08;21.50;;;11.35;;
66327;SDS011;53133;52.862;6.602;2023-07-28T01:35:35;18.15;;;9.77;;
66327;SDS011;53133;52.862;6.602;2023-07-28T01:38:02;18.35;;;10.43;;
66327;SDS011;53133;52.862;6.602;2023-07-28T01:40:28;23.15;;;10.82;;
66327;SDS011;53133;52.862;6.602;2023-07-28T01:42:53;21.17;;;10.38;;
66327;SDS011;53133;52.862;6.602;2023-07-28T01:45:19;22.98;;;11.20;;
66327;SDS011;53133;52.862;6.602;2023-07-28T01:47:45;23.98;;;11.60;;
66327;SDS011;53133;52.862;6.602;2023-07-28T01:50:10;24.35;;;11.63;;
66327;SDS011;53133;52.862;6.602;2023-07-28T01:52:36;22.35;;;12.27;;
66327;SDS011;53133;52.862;6.602;2023-07-28T01:55:01;26.77;;;12.55;;
66327;SDS011;53133;52.862;6.602;2023-07-28T01:57:27;25.48;;;12.13;;
66327;SDS011;53133;52.862;6.602;2023-07-28T01:59:56;28.02;;;13.35;;
66327;SDS011;53133;52.862;6.602;2023-07-28T02:02:21;27.52;;;12.95;;
66327;SDS011;53133;52.862;6.602;2023-07-28T02:04:47;24.10;;;12.65;;
66327;SDS011;53133;52.862;6.602;2023-07-28T02:07:12;25.98;;;12.77;;
66327;SDS011;53133;52.862;6.602;2023-07-28T02:09:38;33.28;;;14.77;;
66327;SDS011;53133;52.862;6.602;2023-07-28T02:12:03;26.70;;;13.27;;
66327;SDS011;53133;52.862;6.602;2023-07-28T02:14:29;24.73;;;13.23;;
66327;SDS011;53133;52.862;6.602;2023-07-28T02:16:55;28.48;;;13.50;;
66327;SDS011;53133;52.862;6.602;2023-07-28T02:19:20;23.55;;;12.75;;
66327;SDS011;53133;52.862;6.602;2023-07-28T02:21:46;26.67;;;13.02;;
66327;SDS011;53133;52.862;6.602;2023-07-28T02:24:11;27.77;;;13.30;;
66327;SDS011;53133;52.862;6.602;2023-07-28T02:26:37;24.45;;;13.50;;
66327;SDS011;53133;52.862;6.602;2023-07-28T02:29:03;29.23;;;13.35;;
66327;SDS011;53133;52.862;6.602;2023-07-28T02:31:28;27.17;;;13.10;;
66327;SDS011;53133;52.862;6.602;2023-07-28T02:33:54;26.35;;;13.85;;
66327;SDS011;53133;52.862;6.602;2023-07-28T02:36:20;29.73;;;14.02;;
66327;SDS011;53133;52.862;6.602;2023-07-28T02:38:46;30.70;;;14.38;;
66327;SDS011;53133;52.862;6.602;2023-07-28T02:41:11;27.15;;;14.00;;
66327;SDS011;53133;52.862;6.602;2023-07-28T02:43:37;28.58;;;15.23;;
66327;SDS011;53133;52.862;6.602;2023-07-28T02:46:02;27.08;;;14.18;;
66327;SDS011;53133;52.862;6.602;2023-07-28T02:48:28;28.08;;;13.40;;
66327;SDS011;53133;52.862;6.602;2023-07-28T02:50:54;27.55;;;13.82;;
66327;SDS011;53133;52.862;6.602;2023-07-28T02:53:19;23.85;;;12.68;;
66327;SDS011;53133;52.862;6.602;2023-07-28T02:55:45;29.30;;;13.85;;
66327;SDS011;53133;52.862;6.602;2023-07-28T02:58:12;27.50;;;13.00;;
66327;SDS011;53133;52.862;6.602;2023-07-28T03:00:38;28.67;;;14.02;;
66327;SDS011;53133;52.862;6.602;2023-07-28T03:03:05;30.55;;;14.02;;
66327;SDS011;53133;52.862;6.602;2023-07-28T03:05:31;23.00;;;12.27;;
66327;SDS011;53133;52.862;6.602;2023-07-28T03:07:57;27.08;;;13.07;;
66327;SDS011;53133;52.862;6.602;2023-07-28T03:10:23;27.92;;;12.60;;
66327;SDS011;53133;52.862;6.602;2023-07-28T03:12:49;26.27;;;13.55;;
66327;SDS011;53133;52.862;6.602;2023-07-28T03:15:14;23.63;;;12.60;;
66327;SDS011;53133;52.862;6.602;2023-07-28T03:17:40;29.83;;;12.75;;
66327;SDS011;53133;52.862;6.602;2023-07-28T03:20:06;26.60;;;12.40;;
66327;SDS011;53133;52.862;6.602;2023-07-28T03:22:32;26.77;;;12.30;;
66327;SDS011;53133;52.862;6.602;2023-07-28T03:24:57;28.48;;;12.45;;
66327;SDS011;53133;52.862;6.602;2023-07-28T03:27:23;25.30;;;12.52;;
66327;SDS011;53133;52.862;6.602;2023-07-28T03:29:49;25.75;;;12.55;;
66327;SDS011;53133;52.862;6.602;2023-07-28T03:32:15;25.88;;;12.30;;
66327;SDS011;53133;52.862;6.602;2023-07-28T03:34:41;25.00;;;12.38;;
66327;SDS011;53133;52.862;6.602;2023-07-28T03:37:07;26.75;;;12.02;;
66327;SDS011;53133;52.862;6.602;2023-07-28T03:39:32;25.38;;;12.38;;
66327;SDS011;53133;52.862;6.602;2023-07-28T03:41:58;25.08;;;12.52;;
66327;SDS011;53133;52.862;6.602;2023-07-28T03:44:24;27.58;;;12.07;;
66327;SDS011;53133;52.862;6.602;2023-07-28T03:46:49;24.92;;;12.13;;
66327;SDS011;53133;52.862;6.602;2023-07-28T03:49:15;25.00;;;12.18;;
66327;SDS011;53133;52.862;6.602;2023-07-28T03:51:40;21.88;;;11.90;;
66327;SDS011;53133;52.862;6.602;2023-07-28T03:54:06;34.80;;;12.13;;
66327;SDS011;53133;52.862;6.602;2023-07-28T03:56:32;23.15;;;12.52;;
66327;SDS011;53133;52.862;6.602;2023-07-28T03:58:57;27.80;;;12.75;;
66327;SDS011;53133;52.862;6.602;2023-07-28T04:01:23;33.90;;;12.95;;
66327;SDS011;53133;52.862;6.602;2023-07-28T04:03:49;31.08;;;13.15;;
66327;SDS011;53133;52.862;6.602;2023-07-28T04:06:15;33.28;;;14.95;;
66327;SDS011;53133;52.862;6.602;2023-07-28T04:08:40;28.65;;;13.63;;
66327;SDS011;53133;52.862;6.602;2023-07-28T04:11:06;30.92;;;14.45;;
66327;SDS011;53133;52.862;6.602;2023-07-28T04:13:33;34.10;;;14.60;;
66327;SDS011;53133;52.862;6.602;2023-07-28T04:15:59;26.17;;;14.23;;
66327;SDS011;53133;52.862;6.602;2023-07-28T04:18:24;26.95;;;13.82;;
66327;SDS011;53133;52.862;6.602;2023-07-28T04:20:50;26.55;;;14.65;;
66327;SDS011;53133;52.862;6.602;2023-07-28T04:23:16;33.80;;;14.38;;
66327;SDS011;53133;52.862;6.602;2023-07-28T04:25:41;30.52;;;15.15;;
66327;SDS011;53133;52.862;6.602;2023-07-28T04:28:07;39.70;;;14.80;;
66327;SDS011;53133;52.862;6.602;2023-07-28T04:30:33;26.27;;;14.02;;
66327;SDS011;53133;52.862;6.602;2023-07-28T04:32:59;28.08;;;14.45;;
66327;SDS011;53133;52.862;6.602;2023-07-28T04:35:25;33.20;;;14.50;;
66327;SDS011;53133;52.862;6.602;2023-07-28T04:37:50;25.08;;;14.13;;
66327;SDS011;53133;52.862;6.602;2023-07-28T04:40:16;27.27;;;14.43;;
66327;SDS011;53133;52.862;6.602;2023-07-28T04:42:42;28.48;;;13.93;;
66327;SDS011;53133;52.862;6.602;2023-07-28T04:45:07;28.48;;;14.23;;
66327;SDS011;53133;52.862;6.602;2023-07-28T04:47:33;27.77;;;13.68;;
66327;SDS011;53133;52.862;6.602;2023-07-28T04:49:59;25.85;;;13.77;;
66327;SDS011;53133;52.862;6.602;2023-07-28T04:52:25;29.58;;;14.43;;
66327;SDS011;53133;52.862;6.602;2023-07-28T04:54:51;32.53;;;14.80;;
66327;SDS011;53133;52.862;6.602;2023-07-28T04:57:16;28.10;;;14.65;;
66327;SDS011;53133;52.862;6.602;2023-07-28T04:59:44;24.42;;;14.10;;
66327;SDS011;53133;52.862;6.602;2023-07-28T05:02:09;27.75;;;14.90;;
66327;SDS011;53133;52.862;6.602;2023-07-28T05:04:35;26.85;;;15.10;;
66327;SDS011;53133;52.862;6.602;2023-07-28T05:07:02;23.48;;;14.57;;
66327;SDS011;53133;52.862;6.602;2023-07-28T05:09:28;27.08;;;14.85;;
66327;SDS011;53133;52.862;6.602;2023-07-28T05:11:54;31.90;;;15.35;;
66327;SDS011;53133;52.862;6.602;2023-07-28T05:14:20;33.00;;;14.07;;
66327;SDS011;53133;52.862;6.602;2023-07-28T05:16:45;29.42;;;14.43;;
66327;SDS011;53133;52.862;6.602;2023-07-28T05:19:12;28.75;;;15.23;;
66327;SDS011;53133;52.862;6.602;2023-07-28T05:21:38;24.25;;;13.95;;
66327;SDS011;53133;52.862;6.602;2023-07-28T05:24:03;30.75;;;15.07;;
66327;SDS011;53133;52.862;6.602;2023-07-28T05:26:29;31.92;;;15.70;;
66327;SDS011;53133;52.862;6.602;2023-07-28T05:28:55;31.73;;;14.90;;
66327;SDS011;53133;52.862;6.602;2023-07-28T05:31:21;27.70;;;14.43;;
66327;SDS011;53133;52.862;6.602;2023-07-28T05:33:46;34.25;;;16.00;;
66327;SDS011;53133;52.862;6.602;2023-07-28T05:36:12;29.73;;;14.77;;
66327;SDS011;53133;52.862;6.602;2023-07-28T05:38:38;27.50;;;15.57;;
66327;SDS011;53133;52.862;6.602;2023-07-28T05:41:04;28.65;;;15.77;;
66327;SDS011;53133;52.862;6.602;2023-07-28T05:43:30;29.38;;;15.50;;
66327;SDS011;53133;52.862;6.602;2023-07-28T05:45:56;29.25;;;14.30;;
66327;SDS011;53133;52.862;6.602;2023-07-28T05:48:22;26.95;;;14.73;;
66327;SDS011;53133;52.862;6.602;2023-07-28T05:50:48;30.25;;;14.38;;
66327;SDS011;53133;52.862;6.602;2023-07-28T05:53:14;28.52;;;14.20;;
66327;SDS011;53133;52.862;6.602;2023-07-28T05:55:39;26.85;;;14.68;;
66327;SDS011;53133;52.862;6.602;2023-07-28T05:58:05;27.08;;;14.40;;
66327;SDS011;53133;52.862;6.602;2023-07-28T06:00:31;25.23;;;14.13;;
66327;SDS011;53133;52.862;6.602;2023-07-28T06:02:56;29.05;;;15.45;;
66327;SDS011;53133;52.862;6.602;2023-07-28T06:05:22;27.52;;;13.85;;
66327;SDS011;53133;52.862;6.602;2023-07-28T06:07:48;29.38;;;14.27;;
66327;SDS011;53133;52.862;6.602;2023-07-28T06:10:13;29.63;;;13.98;;
66327;SDS011;53133;52.862;6.602;2023-07-28T06:12:39;27.55;;;13.63;;
66327;SDS011;53133;52.862;6.602;2023-07-28T06:15:05;28.40;;;14.70;;
66327;SDS011;53133;52.862;6.602;2023-07-28T06:17:31;23.73;;;13.55;;
66327;SDS011;53133;52.862;6.602;2023-07-28T06:19:58;27.80;;;14.20;;
66327;SDS011;53133;52.862;6.602;2023-07-28T06:22:23;25.00;;;13.15;;
66327;SDS011;53133;52.862;6.602;2023-07-28T06:24:49;23.85;;;13.50;;
66327;SDS011;53133;52.862;6.602;2023-07-28T06:27:15;23.45;;;13.23;;
66327;SDS011;53133;52.862;6.602;2023-07-28T06:29:41;23.83;;;13.27;;
66327;SDS011;53133;52.862;6.602;2023-07-28T06:32:07;27.83;;;13.48;;
66327;SDS011;53133;52.862;6.602;2023-07-28T06:34:32;21.65;;;13.30;;
66327;SDS011;53133;52.862;6.602;2023-07-28T06:36:58;22.15;;;12.25;;
66327;SDS011;53133;52.862;6.602;2023-07-28T06:39:24;24.42;;;13.00;;
66327;SDS011;53133;52.862;6.602;2023-07-28T06:41:50;24.10;;;12.50;;
66327;SDS011;53133;52.862;6.602;2023-07-28T06:44:15;19.65;;;11.30;;
66327;SDS011;53133;52.862;6.602;2023-07-28T06:46:41;18.40;;;11.60;;
66327;SDS011;53133;52.862;6.602;2023-07-28T06:49:07;22.35;;;11.40;;
66327;SDS011;53133;52.862;6.602;2023-07-28T06:51:33;19.10;;;11.05;;
66327;SDS011;53133;52.862;6.602;2023-07-28T06:53:58;17.05;;;12.25;;
66327;SDS011;53133;52.862;6.602;2023-07-28T06:56:24;20.55;;;11.63;;
66327;SDS011;53133;52.862;6.602;2023-07-28T06:58:50;19.23;;;11.25;;
66327;SDS011;53133;52.862;6.602;2023-07-28T07:01:16;16.85;;;11.35;;
66327;SDS011;53133;52.862;6.602;2023-07-28T07:03:43;16.85;;;11.02;;
66327;SDS011;53133;52.862;6.602;2023-07-28T07:06:08;20.70;;;11.18;;
66327;SDS011;53133;52.862;6.602;2023-07-28T07:08:34;18.50;;;11.15;;
66327;SDS011;53133;52.862;6.602;2023-07-28T07:11:00;22.63;;;11.75;;
66327;SDS011;53133;52.862;6.602;2023-07-28T07:13:25;18.20;;;11.48;;
66327;SDS011;53133;52.862;6.602;2023-07-28T07:15:51;17.35;;;11.13;;
66327;SDS011;53133;52.862;6.602;2023-07-28T07:18:17;17.35;;;11.18;;
66327;SDS011;53133;52.862;6.602;2023-07-28T07:20:42;23.02;;;11.80;;
66327;SDS011;53133;52.862;6.602;2023-07-28T07:23:08;19.95;;;11.57;;
66327;SDS011;53133;52.862;6.602;2023-07-28T07:25:34;17.73;;;12.02;;
66327;SDS011;53133;52.862;6.602;2023-07-28T07:27:59;19.10;;;12.00;;
66327;SDS011;53133;52.862;6.602;2023-07-28T07:30:25;15.77;;;11.15;;
66327;SDS011;53133;52.862;6.602;2023-07-28T07:32:51;18.88;;;11.90;;
66327;SDS011;53133;52.862;6.602;2023-07-28T07:35:16;20.98;;;12.30;;
66327;SDS011;53133;52.862;6.602;2023-07-28T07:37:42;15.95;;;11.32;;
66327;SDS011;53133;52.862;6.602;2023-07-28T07:40:08;20.55;;;10.95;;
66327;SDS011;53133;52.862;6.602;2023-07-28T07:42:47;18.00;;;11.65;;
66327;SDS011;53133;52.862;6.602;2023-07-28T07:45:14;18.77;;;12.18;;
66327;SDS011;53133;52.862;6.602;2023-07-28T07:47:40;15.98;;;11.00;;
66327;SDS011;53133;52.862;6.602;2023-07-28T07:50:07;18.73;;;12.50;;
66327;SDS011;53133;52.862;6.602;2023-07-28T07:52:34;17.75;;;12.05;;
66327;SDS011;53133;52.862;6.602;2023-07-28T07:55:01;15.60;;;11.53;;
66327;SDS011;53133;52.862;6.602;2023-07-28T07:57:27;17.13;;;11.57;;
66327;SDS011;53133;52.862;6.602;2023-07-28T07:59:53;17.80;;;11.32;;
66327;SDS011;53133;52.862;6.602;2023-07-28T08:02:19;16.25;;;11.73;;
66327;SDS011;53133;52.862;6.602;2023-07-28T08:04:44;19.92;;;12.32;;
66327;SDS011;53133;52.862;6.602;2023-07-28T08:07:10;14.68;;;11.38;;
66327;SDS011;53133;52.862;6.602;2023-07-28T08:09:35;20.00;;;12.20;;
66327;SDS011;53133;52.862;6.602;2023-07-28T08:12:02;17.65;;;11.15;;
66327;SDS011;53133;52.862;6.602;2023-07-28T08:14:28;22.20;;;11.07;;
66327;SDS011;53133;52.862;6.602;2023-07-28T08:16:53;15.77;;;11.40;;
66327;SDS011;53133;52.862;6.602;2023-07-28T08:19:19;18.83;;;10.75;;
66327;SDS011;53133;52.862;6.602;2023-07-28T08:21:45;16.85;;;10.77;;
66327;SDS011;53133;52.862;6.602;2023-07-28T08:24:10;17.02;;;11.35;;
66327;SDS011;53133;52.862;6.602;2023-07-28T08:26:37;17.10;;;10.38;;
66327;SDS011;53133;52.862;6.602;2023-07-28T08:29:02;19.98;;;10.35;;
66327;SDS011;53133;52.862;6.602;2023-07-28T08:31:28;18.73;;;10.55;;
66327;SDS011;53133;52.862;6.602;2023-07-28T08:33:54;13.20;;;10.55;;
66327;SDS011;53133;52.862;6.602;2023-07-28T08:36:19;13.35;;;9.98;;
66327;SDS011;53133;52.862;6.602;2023-07-28T08:38:45;17.15;;;10.05;;
66327;SDS011;53133;52.862;6.602;2023-07-28T08:41:12;11.93;;;8.98;;
66327;SDS011;53133;52.862;6.602;2023-07-28T08:43:39;12.85;;;8.90;;
66327;SDS011;53133;52.862;6.602;2023-07-28T08:46:05;9.73;;;7.53;;
66327;SDS011;53133;52.862;6.602;2023-07-28T08:48:31;10.05;;;8.07;;
66327;SDS011;53133;52.862;6.602;2023-07-28T08:50:56;10.60;;;7.28;;
66327;SDS011;53133;52.862;6.602;2023-07-28T08:53:22;10.32;;;7.38;;
66327;SDS011;53133;52.862;6.602;2023-07-28T08:55:48;11.68;;;7.40;;
66327;SDS011;53133;52.862;6.602;2023-07-28T08:58:20;12.77;;;7.72;;
66327;SDS011;53133;52.862;6.602;2023-07-28T09:00:47;14.10;;;8.07;;
66327;SDS011;53133;52.862;6.602;2023-07-28T09:03:15;11.52;;;7.07;;
66327;SDS011;53133;52.862;6.602;2023-07-28T09:05:42;10.43;;;7.18;;
66327;SDS011;53133;52.862;6.602;2023-07-28T09:08:08;7.35;;;6.43;;
66327;SDS011;53133;52.862;6.602;2023-07-28T09:10:44;11.05;;;6.90;;
66327;SDS011;53133;52.862;6.602;2023-07-28T09:13:12;9.55;;;6.45;;
66327;SDS011;53133;52.862;6.602;2023-07-28T09:15:38;9.43;;;6.68;;
66327;SDS011;53133;52.862;6.602;2023-07-28T09:18:06;12.80;;;6.63;;
66327;SDS011;53133;52.862;6.602;2023-07-28T09:20:37;8.38;;;6.30;;
66327;SDS011;53133;52.862;6.602;2023-07-28T09:23:04;9.18;;;5.57;;
66327;SDS011;53133;52.862;6.602;2023-07-28T09:25:30;7.72;;;5.07;;
66327;SDS011;53133;52.862;6.602;2023-07-28T09:27:57;7.88;;;5.72;;
66327;SDS011;53133;52.862;6.602;2023-07-28T09:30:23;8.82;;;5.70;;
66327;SDS011;53133;52.862;6.602;2023-07-28T09:32:51;5.97;;;4.78;;
66327;SDS011;53133;52.862;6.602;2023-07-28T09:35:18;8.10;;;5.28;;
66327;SDS011;53133;52.862;6.602;2023-07-28T09:37:48;5.32;;;4.72;;
66327;SDS011;53133;52.862;6.602;2023-07-28T09:40:19;5.70;;;4.93;;
66327;SDS011;53133;52.862;6.602;2023-07-28T09:45:16;6.93;;;5.13;;
66327;SDS011;53133;52.862;6.602;2023-07-28T09:47:43;9.32;;;5.90;;
66327;SDS011;53133;52.862;6.602;2023-07-28T09:50:11;9.10;;;6.15;;
66327;SDS011;53133;52.862;6.602;2023-07-28T09:52:48;8.85;;;5.90;;
66327;SDS011;53133;52.862;6.602;2023-07-28T09:55:18;15.23;;;6.95;;
66327;SDS011;53133;52.862;6.602;2023-07-28T09:57:45;10.25;;;6.20;;
66327;SDS011;53133;52.862;6.602;2023-07-28T10:00:20;8.18;;;6.18;;
66327;SDS011;53133;52.862;6.602;2023-07-28T10:02:47;9.10;;;5.82;;
66327;SDS011;53133;52.862;6.602;2023-07-28T10:05:14;8.63;;;5.93;;
66327;SDS011;53133;52.862;6.602;2023-07-28T10:07:40;6.97;;;6.18;;
66327;SDS011;53133;52.862;6.602;2023-07-28T10:10:09;10.38;;;6.78;;
66327;SDS011;53133;52.862;6.602;2023-07-28T10:15:07;8.02;;;6.53;;
66327;SDS011;53133;52.862;6.602;2023-07-28T10:17:36;9.73;;;6.18;;
66327;SDS011;53133;52.862;6.602;2023-07-28T10:20:02;7.50;;;5.97;;
66327;SDS011;53133;52.862;6.602;2023-07-28T10:23:11;7.43;;;6.00;;
66327;SDS011;53133;52.862;6.602;2023-07-28T10:25:32;5.80;;;5.20;;
66327;SDS011;53133;52.862;6.602;2023-07-28T10:28:00;6.10;;;5.50;;
66327;SDS011;53133;52.862;6.602;2023-07-28T10:30:27;6.93;;;5.47;;
66327;SDS011;53133;52.862;6.602;2023-07-28T10:32:54;8.07;;;5.32;;
66327;SDS011;53133;52.862;6.602;2023-07-28T10:35:23;6.53;;;4.78;;
66327;SDS011;53133;52.862;6.602;2023-07-28T10:37:51;7.95;;;5.60;;
66327;SDS011;53133;52.862;6.602;2023-07-28T10:40:21;7.82;;;5.78;;
66327;SDS011;53133;52.862;6.602;2023-07-28T10:42:47;7.78;;;5.38;;
66327;SDS011;53133;52.862;6.602;2023-07-28T10:45:14;8.25;;;6.60;;
66327;SDS011;53133;52.862;6.602;2023-07-28T10:47:40;7.45;;;6.45;;
66327;SDS011;53133;52.862;6.602;2023-07-28T10:50:09;7.90;;;7.10;;
66327;SDS011;53133;52.862;6.602;2023-07-28T10:52:39;7.90;;;7.05;;
66327;SDS011;53133;52.862;6.602;2023-07-28T10:55:11;8.88;;;6.53;;
66327;SDS011;53133;52.862;6.602;2023-07-28T10:57:40;7.05;;;6.07;;
66327;SDS011;53133;52.862;6.602;2023-07-28T11:00:07;10.40;;;7.30;;
66327;SDS011;53133;52.862;6.602;2023-07-28T11:02:36;11.18;;;7.80;;
66327;SDS011;53133;52.862;6.602;2023-07-28T11:05:09;7.82;;;6.95;;
66327;SDS011;53133;52.862;6.602;2023-07-28T11:07:42;7.22;;;6.50;;
66327;SDS011;53133;52.862;6.602;2023-07-28T11:10:13;7.50;;;6.80;;
66327;SDS011;53133;52.862;6.602;2023-07-28T11:12:43;8.05;;;6.72;;
66327;SDS011;53133;52.862;6.602;2023-07-28T11:15:10;8.85;;;7.68;;
66327;SDS011;53133;52.862;6.602;2023-07-28T11:17:39;10.02;;;8.00;;
66327;SDS011;53133;52.862;6.602;2023-07-28T11:20:16;11.63;;;7.75;;
66327;SDS011;53133;52.862;6.602;2023-07-28T11:22:44;10.48;;;8.00;;
66327;SDS011;53133;52.862;6.602;2023-07-28T11:25:11;8.95;;;7.97;;
66327;SDS011;53133;52.862;6.602;2023-07-28T11:27:37;10.13;;;8.00;;
66327;SDS011;53133;52.862;6.602;2023-07-28T11:30:06;10.82;;;8.35;;
66327;SDS011;53133;52.862;6.602;2023-07-28T11:32:35;11.00;;;8.55;;
66327;SDS011;53133;52.862;6.602;2023-07-28T11:35:05;9.63;;;8.13;;
66327;SDS011;53133;52.862;6.602;2023-07-28T11:37:34;9.77;;;8.27;;
66327;SDS011;53133;52.862;6.602;2023-07-28T11:40:02;9.40;;;7.95;;
66327;SDS011;53133;52.862;6.602;2023-07-28T11:42:34;9.25;;;8.18;;
66327;SDS011;53133;52.862;6.602;2023-07-28T11:45:04;9.85;;;7.95;;
66327;SDS011;53133;52.862;6.602;2023-07-28T11:47:31;12.63;;;8.88;;
66327;SDS011;53133;52.862;6.602;2023-07-28T11:49:57;11.55;;;8.95;;
66327;SDS011;53133;52.862;6.602;2023-07-28T11:52:24;18.25;;;11.10;;
66327;SDS011;53133;52.862;6.602;2023-07-28T11:54:56;16.25;;;10.90;;
66327;SDS011;53133;52.862;6.602;2023-07-28T11:57:23;16.15;;;11.50;;
66327;SDS011;53133;52.862;6.602;2023-07-28T11:59:49;14.98;;;11.63;;
66327;SDS011;53133;52.862;6.602;2023-07-28T12:02:23;14.77;;;11.73;;
66327;SDS011;53133;52.862;6.602;2023-07-28T12:04:53;14.55;;;11.85;;
66327;SDS011;53133;52.862;6.602;2023-07-28T12:07:19;14.65;;;10.18;;
66327;SDS011;53133;52.862;6.602;2023-07-28T12:09:53;12.25;;;10.00;;
66327;SDS011;53133;52.862;6.602;2023-07-28T12:12:26;13.98;;;10.15;;
66327;SDS011;53133;52.862;6.602;2023-07-28T12:14:54;13.25;;;10.50;;
66327;SDS011;53133;52.862;6.602;2023-07-28T12:17:22;12.10;;;10.00;;
66327;SDS011;53133;52.862;6.602;2023-07-28T12:20:03;15.23;;;9.32;;
66327;SDS011;53133;52.862;6.602;2023-07-28T12:22:39;13.13;;;9.35;;
66327;SDS011;53133;52.862;6.602;2023-07-28T12:25:06;11.73;;;9.23;;
66327;SDS011;53133;52.862;6.602;2023-07-28T12:27:32;13.18;;;8.60;;
66327;SDS011;53133;52.862;6.602;2023-07-28T12:29:58;11.65;;;8.40;;
66327;SDS011;53133;52.862;6.602;2023-07-28T12:32:24;12.15;;;8.60;;
66327;SDS011;53133;52.862;6.602;2023-07-28T12:34:49;12.15;;;8.60;;
66327;SDS011;53133;52.862;6.602;2023-07-28T12:37:16;9.88;;;8.15;;
66327;SDS011;53133;52.862;6.602;2023-07-28T12:39:42;12.13;;;8.35;;
66327;SDS011;53133;52.862;6.602;2023-07-28T12:42:08;12.00;;;8.43;;
66327;SDS011;53133;52.862;6.602;2023-07-28T12:44:35;10.00;;;8.00;;
66327;SDS011;53133;52.862;6.602;2023-07-28T12:47:02;11.77;;;8.75;;
66327;SDS011;53133;52.862;6.602;2023-07-28T12:49:28;9.98;;;8.50;;
66327;SDS011;53133;52.862;6.602;2023-07-28T12:51:55;11.15;;;8.50;;
66327;SDS011;53133;52.862;6.602;2023-07-28T12:54:24;11.00;;;8.32;;
66327;SDS011;53133;52.862;6.602;2023-07-28T12:56:54;10.45;;;8.13;;
66327;SDS011;53133;52.862;6.602;2023-07-28T12:59:20;11.02;;;8.50;;
66327;SDS011;53133;52.862;6.602;2023-07-28T13:01:45;10.43;;;7.95;;
66327;SDS011;53133;52.862;6.602;2023-07-28T13:04:11;8.82;;;7.85;;
66327;SDS011;53133;52.862;6.602;2023-07-28T13:06:37;9.57;;;8.30;;
66327;SDS011;53133;52.862;6.602;2023-07-28T13:09:03;11.18;;;9.10;;
66327;SDS011;53133;52.862;6.602;2023-07-28T13:11:29;12.02;;;8.95;;
66327;SDS011;53133;52.862;6.602;2023-07-28T13:13:55;12.52;;;9.95;;
66327;SDS011;53133;52.862;6.602;2023-07-28T13:16:21;12.75;;;10.43;;
66327;SDS011;53133;52.862;6.602;2023-07-28T13:18:47;10.63;;;9.43;;
66327;SDS011;53133;52.862;6.602;2023-07-28T13:21:12;13.05;;;9.18;;
66327;SDS011;53133;52.862;6.602;2023-07-28T13:23:41;11.23;;;8.95;;
66327;SDS011;53133;52.862;6.602;2023-07-28T13:26:07;9.70;;;8.05;;
66327;SDS011;53133;52.862;6.602;2023-07-28T13:28:32;12.50;;;8.63;;
66327;SDS011;53133;52.862;6.602;2023-07-28T13:31:00;14.27;;;8.40;;
66327;SDS011;53133;52.862;6.602;2023-07-28T13:33:27;13.32;;;9.82;;
66327;SDS011;53133;52.862;6.602;2023-07-28T13:35:52;11.65;;;9.85;;
66327;SDS011;53133;52.862;6.602;2023-07-28T13:38:18;13.35;;;8.70;;
66327;SDS011;53133;52.862;6.602;2023-07-28T13:40:43;8.70;;;7.18;;
66327;SDS011;53133;52.862;6.602;2023-07-28T13:43:09;9.60;;;7.97;;
66327;SDS011;53133;52.862;6.602;2023-07-28T13:45:34;9.05;;;7.15;;
66327;SDS011;53133;52.862;6.602;2023-07-28T13:48:00;8.00;;;7.13;;
66327;SDS011;53133;52.862;6.602;2023-07-28T13:50:26;10.07;;;7.70;;
66327;SDS011;53133;52.862;6.602;2023-07-28T13:52:51;10.38;;;7.57;;
66327;SDS011;53133;52.862;6.602;2023-07-28T13:55:17;8.57;;;7.28;;
66327;SDS011;53133;52.862;6.602;2023-07-28T13:57:42;8.23;;;7.10;;
66327;SDS011;53133;52.862;6.602;2023-07-28T14:00:09;9.63;;;6.47;;
66327;SDS011;53133;52.862;6.602;2023-07-28T14:02:35;7.47;;;6.40;;
66327;SDS011;53133;52.862;6.602;2023-07-28T14:05:01;7.35;;;6.35;;
66327;SDS011;53133;52.862;6.602;2023-07-28T14:07:27;9.30;;;6.50;;
66327;SDS011;53133;52.862;6.602;2023-07-28T14:09:53;7.97;;;6.90;;
66327;SDS011;53133;52.862;6.602;2023-07-28T14:12:19;8.88;;;7.03;;
66327;SDS011;53133;52.862;6.602;2023-07-28T14:14:45;9.63;;;7.18;;
66327;SDS011;53133;52.862;6.602;2023-07-28T14:17:10;7.97;;;7.03;;
66327;SDS011;53133;52.862;6.602;2023-07-28T14:19:39;7.55;;;6.82;;
66327;SDS011;53133;52.862;6.602;2023-07-28T14:22:05;10.02;;;8.73;;
66327;SDS011;53133;52.862;6.602;2023-07-28T14:24:31;9.20;;;7.13;;
66327;SDS011;53133;52.862;6.602;2023-07-28T14:26:57;8.18;;;6.43;;
66327;SDS011;53133;52.862;6.602;2023-07-28T14:29:22;7.55;;;6.47;;
66327;SDS011;53133;52.862;6.602;2023-07-28T14:31:48;8.23;;;7.05;;
66327;SDS011;53133;52.862;6.602;2023-07-28T14:34:14;9.20;;;7.55;;
66327;SDS011;53133;52.862;6.602;2023-07-28T14:36:40;8.48;;;7.40;;